RJNO(METAR)
10/19 16:00
RJNO 190700Z 05015KT 9999 FEW020 SCT025 BKN040 OVCXXX 17/11 Q1017
RMK A3003=
戻る
トップページへ戻る
IMOC Co,.Ltd.